sensor_id;sensor_type;location;lat;lon;timestamp;P1;durP1;ratioP1;P2;durP2;ratioP2
17055;SDS011;8644;50.222;9.264;2022-08-19T00:01:33;5.18;;;3.47;;
17055;SDS011;8644;50.222;9.264;2022-08-19T00:04:00;3.78;;;2.55;;
17055;SDS011;8644;50.222;9.264;2022-08-19T00:06:27;1.75;;;1.48;;
17055;SDS011;8644;50.222;9.264;2022-08-19T00:08:54;3.53;;;2.58;;
17055;SDS011;8644;50.222;9.264;2022-08-19T00:11:21;2.67;;;1.80;;
17055;SDS011;8644;50.222;9.264;2022-08-19T00:13:48;4.95;;;2.65;;
17055;SDS011;8644;50.222;9.264;2022-08-19T00:16:17;7.90;;;3.40;;
17055;SDS011;8644;50.222;9.264;2022-08-19T00:18:45;3.70;;;2.03;;
17055;SDS011;8644;50.222;9.264;2022-08-19T00:21:12;5.45;;;3.08;;
17055;SDS011;8644;50.222;9.264;2022-08-19T00:23:39;3.13;;;2.60;;
17055;SDS011;8644;50.222;9.264;2022-08-19T00:26:06;2.67;;;2.47;;
17055;SDS011;8644;50.222;9.264;2022-08-19T00:28:33;2.40;;;2.00;;
17055;SDS011;8644;50.222;9.264;2022-08-19T00:31:00;6.07;;;2.95;;
17055;SDS011;8644;50.222;9.264;2022-08-19T00:33:29;2.72;;;2.38;;
17055;SDS011;8644;50.222;9.264;2022-08-19T00:35:57;1.95;;;1.55;;
17055;SDS011;8644;50.222;9.264;2022-08-19T00:38:23;5.53;;;2.67;;
17055;SDS011;8644;50.222;9.264;2022-08-19T00:40:50;4.47;;;3.30;;
17055;SDS011;8644;50.222;9.264;2022-08-19T00:43:18;4.10;;;2.38;;
17055;SDS011;8644;50.222;9.264;2022-08-19T00:45:46;6.38;;;2.05;;
17055;SDS011;8644;50.222;9.264;2022-08-19T00:48:13;3.67;;;2.60;;
17055;SDS011;8644;50.222;9.264;2022-08-19T00:50:40;2.85;;;2.33;;
17055;SDS011;8644;50.222;9.264;2022-08-19T00:53:09;2.95;;;2.63;;
17055;SDS011;8644;50.222;9.264;2022-08-19T00:55:36;6.35;;;2.80;;
17055;SDS011;8644;50.222;9.264;2022-08-19T00:58:05;7.00;;;3.25;;
17055;SDS011;8644;50.222;9.264;2022-08-19T01:00:33;3.10;;;2.22;;
17055;SDS011;8644;50.222;9.264;2022-08-19T01:03:01;6.65;;;3.55;;
17055;SDS011;8644;50.222;9.264;2022-08-19T01:05:28;6.85;;;3.08;;
17055;SDS011;8644;50.222;9.264;2022-08-19T01:07:57;2.90;;;2.55;;
17055;SDS011;8644;50.222;9.264;2022-08-19T01:10:25;3.22;;;2.25;;
17055;SDS011;8644;50.222;9.264;2022-08-19T01:12:52;2.92;;;2.58;;
17055;SDS011;8644;50.222;9.264;2022-08-19T01:15:21;6.75;;;2.65;;
17055;SDS011;8644;50.222;9.264;2022-08-19T01:17:48;1.73;;;1.63;;
17055;SDS011;8644;50.222;9.264;2022-08-19T01:20:17;2.30;;;2.17;;
17055;SDS011;8644;50.222;9.264;2022-08-19T01:22:46;2.03;;;1.90;;
17055;SDS011;8644;50.222;9.264;2022-08-19T01:25:14;2.72;;;1.85;;
17055;SDS011;8644;50.222;9.264;2022-08-19T01:27:41;4.18;;;2.10;;
17055;SDS011;8644;50.222;9.264;2022-08-19T01:30:09;4.53;;;2.22;;
17055;SDS011;8644;50.222;9.264;2022-08-19T01:32:37;8.93;;;3.50;;
17055;SDS011;8644;50.222;9.264;2022-08-19T01:35:04;2.83;;;2.22;;
17055;SDS011;8644;50.222;9.264;2022-08-19T01:37:40;3.40;;;2.30;;
17055;SDS011;8644;50.222;9.264;2022-08-19T01:40:09;3.05;;;2.55;;
17055;SDS011;8644;50.222;9.264;2022-08-19T01:42:36;2.88;;;2.63;;
17055;SDS011;8644;50.222;9.264;2022-08-19T01:45:03;2.47;;;2.10;;
17055;SDS011;8644;50.222;9.264;2022-08-19T01:47:29;5.47;;;2.75;;
17055;SDS011;8644;50.222;9.264;2022-08-19T01:49:57;2.95;;;2.75;;
17055;SDS011;8644;50.222;9.264;2022-08-19T01:52:24;2.75;;;2.05;;
17055;SDS011;8644;50.222;9.264;2022-08-19T01:54:50;5.60;;;2.15;;
17055;SDS011;8644;50.222;9.264;2022-08-19T01:57:18;3.05;;;1.95;;
17055;SDS011;8644;50.222;9.264;2022-08-19T01:59:45;4.72;;;3.83;;
17055;SDS011;8644;50.222;9.264;2022-08-19T02:02:12;3.28;;;2.35;;
17055;SDS011;8644;50.222;9.264;2022-08-19T02:04:39;4.88;;;1.85;;
17055;SDS011;8644;50.222;9.264;2022-08-19T02:07:06;3.25;;;3.05;;
17055;SDS011;8644;50.222;9.264;2022-08-19T02:09:33;2.67;;;2.47;;
17055;SDS011;8644;50.222;9.264;2022-08-19T02:11:59;9.15;;;2.33;;
17055;SDS011;8644;50.222;9.264;2022-08-19T02:14:27;5.28;;;3.28;;
17055;SDS011;8644;50.222;9.264;2022-08-19T02:16:54;5.95;;;2.63;;
17055;SDS011;8644;50.222;9.264;2022-08-19T02:19:20;2.92;;;2.58;;
17055;SDS011;8644;50.222;9.264;2022-08-19T02:21:47;4.28;;;2.67;;
17055;SDS011;8644;50.222;9.264;2022-08-19T02:24:14;5.75;;;2.72;;
17055;SDS011;8644;50.222;9.264;2022-08-19T02:26:40;4.70;;;2.28;;
17055;SDS011;8644;50.222;9.264;2022-08-19T02:29:07;7.35;;;3.13;;
17055;SDS011;8644;50.222;9.264;2022-08-19T02:31:35;5.72;;;2.72;;
17055;SDS011;8644;50.222;9.264;2022-08-19T02:34:01;3.00;;;2.67;;
17055;SDS011;8644;50.222;9.264;2022-08-19T02:36:28;2.25;;;2.10;;
17055;SDS011;8644;50.222;9.264;2022-08-19T02:38:55;2.78;;;2.33;;
17055;SDS011;8644;50.222;9.264;2022-08-19T02:41:21;1.77;;;1.67;;
17055;SDS011;8644;50.222;9.264;2022-08-19T02:43:48;5.95;;;3.15;;
17055;SDS011;8644;50.222;9.264;2022-08-19T02:46:16;4.70;;;3.00;;
17055;SDS011;8644;50.222;9.264;2022-08-19T02:48:47;4.20;;;2.50;;
17055;SDS011;8644;50.222;9.264;2022-08-19T02:51:17;4.47;;;2.95;;
17055;SDS011;8644;50.222;9.264;2022-08-19T02:53:44;3.60;;;3.15;;
17055;SDS011;8644;50.222;9.264;2022-08-19T02:56:10;2.10;;;1.90;;
17055;SDS011;8644;50.222;9.264;2022-08-19T02:58:37;9.50;;;2.63;;
17055;SDS011;8644;50.222;9.264;2022-08-19T03:01:04;4.28;;;2.20;;
17055;SDS011;8644;50.222;9.264;2022-08-19T03:03:30;3.03;;;2.55;;
17055;SDS011;8644;50.222;9.264;2022-08-19T03:06:06;2.88;;;2.20;;
17055;SDS011;8644;50.222;9.264;2022-08-19T03:08:33;4.65;;;2.75;;
17055;SDS011;8644;50.222;9.264;2022-08-19T03:10:59;3.65;;;3.05;;
17055;SDS011;8644;50.222;9.264;2022-08-19T03:13:26;8.88;;;2.92;;
17055;SDS011;8644;50.222;9.264;2022-08-19T03:15:53;2.53;;;2.33;;
17055;SDS011;8644;50.222;9.264;2022-08-19T03:18:19;4.57;;;2.95;;
17055;SDS011;8644;50.222;9.264;2022-08-19T03:20:47;4.28;;;3.05;;
17055;SDS011;8644;50.222;9.264;2022-08-19T03:23:15;2.50;;;2.15;;
17055;SDS011;8644;50.222;9.264;2022-08-19T03:25:44;3.92;;;2.50;;
17055;SDS011;8644;50.222;9.264;2022-08-19T03:28:11;2.58;;;2.30;;
17055;SDS011;8644;50.222;9.264;2022-08-19T03:30:38;2.25;;;1.73;;
17055;SDS011;8644;50.222;9.264;2022-08-19T03:33:06;2.83;;;2.03;;
17055;SDS011;8644;50.222;9.264;2022-08-19T03:35:32;4.85;;;2.80;;
17055;SDS011;8644;50.222;9.264;2022-08-19T03:38:01;3.08;;;2.78;;
17055;SDS011;8644;50.222;9.264;2022-08-19T03:40:29;2.22;;;1.92;;
17055;SDS011;8644;50.222;9.264;2022-08-19T03:42:56;10.02;;;2.17;;
17055;SDS011;8644;50.222;9.264;2022-08-19T03:45:23;4.68;;;3.40;;
17055;SDS011;8644;50.222;9.264;2022-08-19T03:47:49;6.15;;;4.18;;
17055;SDS011;8644;50.222;9.264;2022-08-19T03:50:16;2.25;;;2.08;;
17055;SDS011;8644;50.222;9.264;2022-08-19T03:52:47;2.00;;;1.83;;
17055;SDS011;8644;50.222;9.264;2022-08-19T03:55:14;3.08;;;2.88;;
17055;SDS011;8644;50.222;9.264;2022-08-19T03:57:42;3.97;;;2.90;;
17055;SDS011;8644;50.222;9.264;2022-08-19T04:00:10;3.05;;;2.75;;
17055;SDS011;8644;50.222;9.264;2022-08-19T04:02:37;3.42;;;2.65;;
17055;SDS011;8644;50.222;9.264;2022-08-19T04:05:04;3.20;;;2.45;;
17055;SDS011;8644;50.222;9.264;2022-08-19T04:07:33;10.02;;;2.78;;
17055;SDS011;8644;50.222;9.264;2022-08-19T04:09:59;2.03;;;1.70;;
17055;SDS011;8644;50.222;9.264;2022-08-19T04:12:26;4.30;;;2.55;;
17055;SDS011;8644;50.222;9.264;2022-08-19T04:14:54;3.92;;;2.85;;
17055;SDS011;8644;50.222;9.264;2022-08-19T04:17:20;3.15;;;2.00;;
17055;SDS011;8644;50.222;9.264;2022-08-19T04:19:47;1.40;;;1.30;;
17055;SDS011;8644;50.222;9.264;2022-08-19T04:22:13;5.60;;;3.28;;
17055;SDS011;8644;50.222;9.264;2022-08-19T04:24:40;10.75;;;3.58;;
17055;SDS011;8644;50.222;9.264;2022-08-19T04:27:07;2.47;;;2.28;;
17055;SDS011;8644;50.222;9.264;2022-08-19T04:29:33;12.05;;;2.33;;
17055;SDS011;8644;50.222;9.264;2022-08-19T04:32:02;2.95;;;2.65;;
17055;SDS011;8644;50.222;9.264;2022-08-19T04:34:28;5.50;;;2.42;;
17055;SDS011;8644;50.222;9.264;2022-08-19T04:36:55;3.72;;;2.72;;
17055;SDS011;8644;50.222;9.264;2022-08-19T04:39:23;1.65;;;1.55;;
17055;SDS011;8644;50.222;9.264;2022-08-19T04:42:11;2.47;;;2.28;;
17055;SDS011;8644;50.222;9.264;2022-08-19T04:44:55;2.30;;;2.13;;
17055;SDS011;8644;50.222;9.264;2022-08-19T04:47:23;6.10;;;2.78;;
17055;SDS011;8644;50.222;9.264;2022-08-19T04:49:50;5.55;;;3.58;;
17055;SDS011;8644;50.222;9.264;2022-08-19T04:52:16;5.30;;;3.22;;
17055;SDS011;8644;50.222;9.264;2022-08-19T04:54:43;7.57;;;3.60;;
17055;SDS011;8644;50.222;9.264;2022-08-19T04:57:09;9.48;;;2.80;;
17055;SDS011;8644;50.222;9.264;2022-08-19T04:59:36;4.25;;;2.60;;
17055;SDS011;8644;50.222;9.264;2022-08-19T05:02:03;3.08;;;2.42;;
17055;SDS011;8644;50.222;9.264;2022-08-19T05:04:31;5.38;;;2.15;;
17055;SDS011;8644;50.222;9.264;2022-08-19T05:06:58;3.60;;;2.20;;
17055;SDS011;8644;50.222;9.264;2022-08-19T05:09:25;3.60;;;2.83;;
17055;SDS011;8644;50.222;9.264;2022-08-19T05:11:52;3.42;;;2.58;;
17055;SDS011;8644;50.222;9.264;2022-08-19T05:14:19;13.88;;;4.20;;
17055;SDS011;8644;50.222;9.264;2022-08-19T05:16:46;22.38;;;3.38;;
17055;SDS011;8644;50.222;9.264;2022-08-19T05:19:12;1.92;;;1.83;;
17055;SDS011;8644;50.222;9.264;2022-08-19T05:21:58;2.92;;;2.58;;
17055;SDS011;8644;50.222;9.264;2022-08-19T05:24:42;1.90;;;1.75;;
17055;SDS011;8644;50.222;9.264;2022-08-19T05:27:09;2.10;;;1.75;;
17055;SDS011;8644;50.222;9.264;2022-08-19T05:29:35;6.78;;;2.60;;
17055;SDS011;8644;50.222;9.264;2022-08-19T05:32:02;4.28;;;2.58;;
17055;SDS011;8644;50.222;9.264;2022-08-19T05:34:30;3.17;;;2.22;;
17055;SDS011;8644;50.222;9.264;2022-08-19T05:36:59;3.80;;;2.30;;
17055;SDS011;8644;50.222;9.264;2022-08-19T05:39:27;6.78;;;2.83;;
17055;SDS011;8644;50.222;9.264;2022-08-19T05:41:55;3.17;;;2.38;;
17055;SDS011;8644;50.222;9.264;2022-08-19T05:44:23;2.15;;;2.05;;
17055;SDS011;8644;50.222;9.264;2022-08-19T05:46:50;3.63;;;2.42;;
17055;SDS011;8644;50.222;9.264;2022-08-19T05:49:18;11.10;;;3.08;;
17055;SDS011;8644;50.222;9.264;2022-08-19T05:51:45;5.10;;;3.47;;
17055;SDS011;8644;50.222;9.264;2022-08-19T05:54:13;1.80;;;1.70;;
17055;SDS011;8644;50.222;9.264;2022-08-19T05:56:40;6.22;;;2.08;;
17055;SDS011;8644;50.222;9.264;2022-08-19T05:59:07;4.18;;;2.00;;
17055;SDS011;8644;50.222;9.264;2022-08-19T06:01:36;4.90;;;2.42;;
17055;SDS011;8644;50.222;9.264;2022-08-19T06:04:03;2.97;;;2.30;;
17055;SDS011;8644;50.222;9.264;2022-08-19T06:06:30;3.88;;;3.35;;
17055;SDS011;8644;50.222;9.264;2022-08-19T06:08:59;2.67;;;1.85;;
17055;SDS011;8644;50.222;9.264;2022-08-19T06:11:33;4.45;;;3.15;;
17055;SDS011;8644;50.222;9.264;2022-08-19T06:14:01;3.58;;;2.78;;
17055;SDS011;8644;50.222;9.264;2022-08-19T06:16:28;4.30;;;3.50;;
17055;SDS011;8644;50.222;9.264;2022-08-19T06:18:57;2.35;;;2.20;;
17055;SDS011;8644;50.222;9.264;2022-08-19T06:21:26;3.92;;;3.63;;
17055;SDS011;8644;50.222;9.264;2022-08-19T06:23:53;3.90;;;2.40;;
17055;SDS011;8644;50.222;9.264;2022-08-19T06:26:21;2.05;;;1.88;;
17055;SDS011;8644;50.222;9.264;2022-08-19T06:28:50;12.27;;;2.70;;
17055;SDS011;8644;50.222;9.264;2022-08-19T06:31:17;2.55;;;2.20;;
17055;SDS011;8644;50.222;9.264;2022-08-19T06:33:45;5.80;;;2.78;;
17055;SDS011;8644;50.222;9.264;2022-08-19T06:36:16;3.55;;;3.25;;
17055;SDS011;8644;50.222;9.264;2022-08-19T06:38:43;2.88;;;2.60;;
17055;SDS011;8644;50.222;9.264;2022-08-19T06:41:09;6.80;;;2.75;;
17055;SDS011;8644;50.222;9.264;2022-08-19T06:43:36;3.28;;;2.13;;
17055;SDS011;8644;50.222;9.264;2022-08-19T06:46:04;3.17;;;2.90;;
17055;SDS011;8644;50.222;9.264;2022-08-19T06:48:35;5.38;;;2.70;;
17055;SDS011;8644;50.222;9.264;2022-08-19T06:51:02;5.15;;;2.75;;
17055;SDS011;8644;50.222;9.264;2022-08-19T06:53:31;5.90;;;3.47;;
17055;SDS011;8644;50.222;9.264;2022-08-19T06:55:57;4.28;;;2.83;;
17055;SDS011;8644;50.222;9.264;2022-08-19T06:58:28;2.58;;;2.30;;
17055;SDS011;8644;50.222;9.264;2022-08-19T07:00:58;5.28;;;2.55;;
17055;SDS011;8644;50.222;9.264;2022-08-19T07:03:27;2.30;;;2.10;;
17055;SDS011;8644;50.222;9.264;2022-08-19T07:05:54;5.60;;;2.38;;
17055;SDS011;8644;50.222;9.264;2022-08-19T07:08:20;3.85;;;2.70;;
17055;SDS011;8644;50.222;9.264;2022-08-19T07:10:47;2.67;;;2.47;;
17055;SDS011;8644;50.222;9.264;2022-08-19T07:13:14;2.97;;;2.70;;
17055;SDS011;8644;50.222;9.264;2022-08-19T07:15:41;2.83;;;2.60;;
17055;SDS011;8644;50.222;9.264;2022-08-19T07:18:08;2.67;;;2.47;;
17055;SDS011;8644;50.222;9.264;2022-08-19T07:20:36;4.35;;;3.63;;
17055;SDS011;8644;50.222;9.264;2022-08-19T07:23:03;4.80;;;3.33;;
17055;SDS011;8644;50.222;9.264;2022-08-19T07:25:30;3.30;;;3.00;;
17055;SDS011;8644;50.222;9.264;2022-08-19T07:27:56;5.07;;;3.03;;
17055;SDS011;8644;50.222;9.264;2022-08-19T07:30:23;6.72;;;2.90;;
17055;SDS011;8644;50.222;9.264;2022-08-19T07:32:49;3.85;;;2.40;;
17055;SDS011;8644;50.222;9.264;2022-08-19T07:35:16;3.17;;;2.88;;
17055;SDS011;8644;50.222;9.264;2022-08-19T07:37:46;4.22;;;2.88;;
17055;SDS011;8644;50.222;9.264;2022-08-19T07:40:13;5.70;;;3.25;;
17055;SDS011;8644;50.222;9.264;2022-08-19T07:42:39;2.20;;;1.95;;
17055;SDS011;8644;50.222;9.264;2022-08-19T07:45:06;2.90;;;2.53;;
17055;SDS011;8644;50.222;9.264;2022-08-19T07:47:33;2.90;;;2.05;;
17055;SDS011;8644;50.222;9.264;2022-08-19T07:50:00;5.45;;;3.03;;
17055;SDS011;8644;50.222;9.264;2022-08-19T07:52:29;3.20;;;2.90;;
17055;SDS011;8644;50.222;9.264;2022-08-19T07:54:57;3.75;;;3.45;;
17055;SDS011;8644;50.222;9.264;2022-08-19T07:57:25;3.35;;;2.33;;
17055;SDS011;8644;50.222;9.264;2022-08-19T07:59:51;4.72;;;2.22;;
17055;SDS011;8644;50.222;9.264;2022-08-19T08:02:18;5.75;;;3.35;;
17055;SDS011;8644;50.222;9.264;2022-08-19T08:04:45;19.83;;;10.00;;
17055;SDS011;8644;50.222;9.264;2022-08-19T08:07:29;11.15;;;5.97;;
17055;SDS011;8644;50.222;9.264;2022-08-19T08:10:14;6.47;;;4.50;;
17055;SDS011;8644;50.222;9.264;2022-08-19T08:12:41;6.30;;;2.45;;
17055;SDS011;8644;50.222;9.264;2022-08-19T08:15:09;2.05;;;1.92;;
17055;SDS011;8644;50.222;9.264;2022-08-19T08:17:36;6.22;;;3.10;;
17055;SDS011;8644;50.222;9.264;2022-08-19T08:20:04;3.95;;;2.85;;
17055;SDS011;8644;50.222;9.264;2022-08-19T08:22:31;2.55;;;1.85;;
17055;SDS011;8644;50.222;9.264;2022-08-19T08:25:18;5.45;;;2.53;;
17055;SDS011;8644;50.222;9.264;2022-08-19T08:27:46;5.43;;;3.13;;
17055;SDS011;8644;50.222;9.264;2022-08-19T08:30:15;8.35;;;5.80;;
17055;SDS011;8644;50.222;9.264;2022-08-19T08:32:42;4.50;;;3.38;;
17055;SDS011;8644;50.222;9.264;2022-08-19T08:35:10;3.35;;;2.92;;
17055;SDS011;8644;50.222;9.264;2022-08-19T08:37:37;1.75;;;1.63;;
17055;SDS011;8644;50.222;9.264;2022-08-19T08:40:04;3.28;;;1.70;;
17055;SDS011;8644;50.222;9.264;2022-08-19T08:42:34;4.00;;;2.90;;
17055;SDS011;8644;50.222;9.264;2022-08-19T08:45:03;6.13;;;3.03;;
17055;SDS011;8644;50.222;9.264;2022-08-19T08:47:34;2.95;;;2.20;;
17055;SDS011;8644;50.222;9.264;2022-08-19T08:50:03;2.58;;;2.25;;
17055;SDS011;8644;50.222;9.264;2022-08-19T08:52:31;2.88;;;2.58;;
17055;SDS011;8644;50.222;9.264;2022-08-19T08:55:05;5.38;;;3.70;;
17055;SDS011;8644;50.222;9.264;2022-08-19T08:57:35;3.80;;;2.40;;
17055;SDS011;8644;50.222;9.264;2022-08-19T09:00:04;2.60;;;2.03;;
17055;SDS011;8644;50.222;9.264;2022-08-19T09:02:31;2.88;;;2.58;;
17055;SDS011;8644;50.222;9.264;2022-08-19T09:04:58;7.00;;;2.28;;
17055;SDS011;8644;50.222;9.264;2022-08-19T09:07:39;3.83;;;1.98;;
17055;SDS011;8644;50.222;9.264;2022-08-19T09:10:10;2.67;;;2.13;;
17055;SDS011;8644;50.222;9.264;2022-08-19T09:12:47;2.25;;;2.10;;
17055;SDS011;8644;50.222;9.264;2022-08-19T09:15:25;2.08;;;1.77;;
17055;SDS011;8644;50.222;9.264;2022-08-19T09:17:54;2.15;;;1.75;;
17055;SDS011;8644;50.222;9.264;2022-08-19T09:20:27;1.58;;;1.48;;
17055;SDS011;8644;50.222;9.264;2022-08-19T09:22:53;2.55;;;2.13;;
17055;SDS011;8644;50.222;9.264;2022-08-19T09:25:21;1.20;;;1.13;;
17055;SDS011;8644;50.222;9.264;2022-08-19T09:27:50;2.95;;;2.50;;
17055;SDS011;8644;50.222;9.264;2022-08-19T09:30:19;6.72;;;2.78;;
17055;SDS011;8644;50.222;9.264;2022-08-19T09:32:46;1.08;;;1.08;;
17055;SDS011;8644;50.222;9.264;2022-08-19T09:35:13;1.60;;;1.50;;
17055;SDS011;8644;50.222;9.264;2022-08-19T09:37:40;3.75;;;1.83;;
17055;SDS011;8644;50.222;9.264;2022-08-19T09:40:08;1.83;;;1.35;;
17055;SDS011;8644;50.222;9.264;2022-08-19T09:42:36;0.77;;;0.77;;
17055;SDS011;8644;50.222;9.264;2022-08-19T09:45:04;2.00;;;1.50;;
17055;SDS011;8644;50.222;9.264;2022-08-19T09:47:31;1.52;;;1.35;;
17055;SDS011;8644;50.222;9.264;2022-08-19T09:50:01;0.88;;;0.82;;
17055;SDS011;8644;50.222;9.264;2022-08-19T09:52:27;0.75;;;0.75;;
17055;SDS011;8644;50.222;9.264;2022-08-19T09:54:54;1.50;;;1.40;;
17055;SDS011;8644;50.222;9.264;2022-08-19T09:57:21;1.92;;;1.13;;
17055;SDS011;8644;50.222;9.264;2022-08-19T09:59:47;0.93;;;0.93;;
17055;SDS011;8644;50.222;9.264;2022-08-19T10:02:15;0.75;;;0.75;;
17055;SDS011;8644;50.222;9.264;2022-08-19T10:04:43;0.65;;;0.65;;
17055;SDS011;8644;50.222;9.264;2022-08-19T10:07:28;1.55;;;0.70;;
17055;SDS011;8644;50.222;9.264;2022-08-19T10:09:55;3.28;;;1.40;;
17055;SDS011;8644;50.222;9.264;2022-08-19T10:12:22;8.32;;;1.27;;
17055;SDS011;8644;50.222;9.264;2022-08-19T10:14:49;0.75;;;0.75;;
17055;SDS011;8644;50.222;9.264;2022-08-19T10:17:17;1.17;;;0.77;;
17055;SDS011;8644;50.222;9.264;2022-08-19T10:19:44;0.73;;;0.63;;
17055;SDS011;8644;50.222;9.264;2022-08-19T10:22:11;4.63;;;0.75;;
17055;SDS011;8644;50.222;9.264;2022-08-19T10:24:38;1.92;;;0.63;;
17055;SDS011;8644;50.222;9.264;2022-08-19T10:27:05;0.43;;;0.43;;
17055;SDS011;8644;50.222;9.264;2022-08-19T10:29:32;0.95;;;0.85;;
17055;SDS011;8644;50.222;9.264;2022-08-19T10:32:00;0.77;;;0.47;;
17055;SDS011;8644;50.222;9.264;2022-08-19T10:34:29;0.38;;;0.38;;
17055;SDS011;8644;50.222;9.264;2022-08-19T10:36:56;0.85;;;0.70;;
17055;SDS011;8644;50.222;9.264;2022-08-19T10:39:23;1.92;;;0.77;;
17055;SDS011;8644;50.222;9.264;2022-08-19T10:41:50;1.15;;;0.77;;
17055;SDS011;8644;50.222;9.264;2022-08-19T10:44:16;0.68;;;0.63;;
17055;SDS011;8644;50.222;9.264;2022-08-19T10:46:43;0.40;;;0.40;;
17055;SDS011;8644;50.222;9.264;2022-08-19T10:49:12;1.20;;;0.70;;
17055;SDS011;8644;50.222;9.264;2022-08-19T10:51:40;10.80;;;0.80;;
17055;SDS011;8644;50.222;9.264;2022-08-19T10:54:25;3.50;;;1.10;;
17055;SDS011;8644;50.222;9.264;2022-08-19T10:57:12;0.63;;;0.60;;
17055;SDS011;8644;50.222;9.264;2022-08-19T10:59:38;1.13;;;0.45;;
17055;SDS011;8644;50.222;9.264;2022-08-19T11:02:06;0.50;;;0.50;;
17055;SDS011;8644;50.222;9.264;2022-08-19T11:04:34;0.70;;;0.63;;
17055;SDS011;8644;50.222;9.264;2022-08-19T11:07:02;0.40;;;0.40;;
17055;SDS011;8644;50.222;9.264;2022-08-19T11:09:29;1.20;;;0.80;;
17055;SDS011;8644;50.222;9.264;2022-08-19T11:11:56;2.65;;;0.65;;
17055;SDS011;8644;50.222;9.264;2022-08-19T11:14:23;2.05;;;0.52;;
17055;SDS011;8644;50.222;9.264;2022-08-19T11:16:51;1.02;;;0.60;;
17055;SDS011;8644;50.222;9.264;2022-08-19T11:19:18;0.20;;;0.20;;
17055;SDS011;8644;50.222;9.264;2022-08-19T11:21:46;0.45;;;0.43;;
17055;SDS011;8644;50.222;9.264;2022-08-19T11:24:17;0.50;;;0.50;;
17055;SDS011;8644;50.222;9.264;2022-08-19T11:26:45;0.30;;;0.30;;
17055;SDS011;8644;50.222;9.264;2022-08-19T11:29:13;0.20;;;0.20;;
17055;SDS011;8644;50.222;9.264;2022-08-19T11:31:41;0.68;;;0.55;;
17055;SDS011;8644;50.222;9.264;2022-08-19T11:34:09;0.38;;;0.38;;
17055;SDS011;8644;50.222;9.264;2022-08-19T11:36:36;9.57;;;0.63;;
17055;SDS011;8644;50.222;9.264;2022-08-19T11:39:04;0.40;;;0.40;;
17055;SDS011;8644;50.222;9.264;2022-08-19T11:41:33;0.10;;;0.10;;
17055;SDS011;8644;50.222;9.264;2022-08-19T11:43:59;0.38;;;0.38;;
17055;SDS011;8644;50.222;9.264;2022-08-19T11:46:28;0.85;;;0.45;;
17055;SDS011;8644;50.222;9.264;2022-08-19T11:48:55;1.10;;;0.85;;
17055;SDS011;8644;50.222;9.264;2022-08-19T11:51:23;0.50;;;0.50;;
17055;SDS011;8644;50.222;9.264;2022-08-19T11:53:51;0.98;;;0.45;;
17055;SDS011;8644;50.222;9.264;2022-08-19T11:56:18;0.82;;;0.50;;
17055;SDS011;8644;50.222;9.264;2022-08-19T11:58:47;0.73;;;0.40;;
17055;SDS011;8644;50.222;9.264;2022-08-19T12:01:15;0.30;;;0.30;;
17055;SDS011;8644;50.222;9.264;2022-08-19T12:03:42;0.38;;;0.38;;
17055;SDS011;8644;50.222;9.264;2022-08-19T12:06:12;0.22;;;0.20;;
17055;SDS011;8644;50.222;9.264;2022-08-19T12:08:39;0.68;;;0.68;;
17055;SDS011;8644;50.222;9.264;2022-08-19T12:11:06;0.77;;;0.77;;
17055;SDS011;8644;50.222;9.264;2022-08-19T12:13:33;0.55;;;0.55;;
17055;SDS011;8644;50.222;9.264;2022-08-19T12:16:02;0.50;;;0.40;;
17055;SDS011;8644;50.222;9.264;2022-08-19T12:18:33;0.20;;;0.20;;
17055;SDS011;8644;50.222;9.264;2022-08-19T12:21:00;0.20;;;0.20;;
17055;SDS011;8644;50.222;9.264;2022-08-19T12:23:26;0.85;;;0.63;;
17055;SDS011;8644;50.222;9.264;2022-08-19T12:25:56;0.13;;;0.13;;
17055;SDS011;8644;50.222;9.264;2022-08-19T12:28:24;0.45;;;0.45;;
17055;SDS011;8644;50.222;9.264;2022-08-19T12:30:51;0.73;;;0.73;;
17055;SDS011;8644;50.222;9.264;2022-08-19T12:33:19;0.30;;;0.30;;
17055;SDS011;8644;50.222;9.264;2022-08-19T12:35:49;0.63;;;0.63;;
17055;SDS011;8644;50.222;9.264;2022-08-19T12:38:16;0.10;;;0.10;;
17055;SDS011;8644;50.222;9.264;2022-08-19T12:40:45;0.50;;;0.50;;
17055;SDS011;8644;50.222;9.264;2022-08-19T12:43:12;0.43;;;0.40;;
17055;SDS011;8644;50.222;9.264;2022-08-19T12:45:40;2.05;;;1.25;;
17055;SDS011;8644;50.222;9.264;2022-08-19T12:48:07;0.47;;;0.47;;
17055;SDS011;8644;50.222;9.264;2022-08-19T12:50:35;1.27;;;0.57;;
17055;SDS011;8644;50.222;9.264;2022-08-19T12:53:02;0.30;;;0.30;;
17055;SDS011;8644;50.222;9.264;2022-08-19T12:55:29;0.65;;;0.65;;
17055;SDS011;8644;50.222;9.264;2022-08-19T12:57:55;3.65;;;1.23;;
17055;SDS011;8644;50.222;9.264;2022-08-19T13:00:22;0.73;;;0.57;;
17055;SDS011;8644;50.222;9.264;2022-08-19T13:02:51;0.30;;;0.30;;
17055;SDS011;8644;50.222;9.264;2022-08-19T13:05:19;1.55;;;0.63;;
17055;SDS011;8644;50.222;9.264;2022-08-19T13:07:49;1.17;;;0.60;;
17055;SDS011;8644;50.222;9.264;2022-08-19T13:10:17;3.63;;;0.50;;
17055;SDS011;8644;50.222;9.264;2022-08-19T13:12:45;1.23;;;0.75;;
17055;SDS011;8644;50.222;9.264;2022-08-19T13:15:12;0.65;;;0.65;;
17055;SDS011;8644;50.222;9.264;2022-08-19T13:17:40;0.60;;;0.60;;
17055;SDS011;8644;50.222;9.264;2022-08-19T13:20:07;0.75;;;0.70;;
17055;SDS011;8644;50.222;9.264;2022-08-19T13:22:35;0.40;;;0.40;;
17055;SDS011;8644;50.222;9.264;2022-08-19T13:25:03;0.40;;;0.40;;
17055;SDS011;8644;50.222;9.264;2022-08-19T13:27:30;1.30;;;0.68;;
17055;SDS011;8644;50.222;9.264;2022-08-19T13:29:57;0.70;;;0.65;;
17055;SDS011;8644;50.222;9.264;2022-08-19T13:32:41;1.20;;;0.98;;
17055;SDS011;8644;50.222;9.264;2022-08-19T13:35:25;0.45;;;0.45;;
17055;SDS011;8644;50.222;9.264;2022-08-19T13:37:51;0.50;;;0.50;;
17055;SDS011;8644;50.222;9.264;2022-08-19T13:40:21;0.43;;;0.40;;
17055;SDS011;8644;50.222;9.264;2022-08-19T13:42:50;0.60;;;0.60;;
17055;SDS011;8644;50.222;9.264;2022-08-19T13:45:17;3.03;;;1.10;;
17055;SDS011;8644;50.222;9.264;2022-08-19T13:47:45;1.75;;;1.00;;
17055;SDS011;8644;50.222;9.264;2022-08-19T13:50:12;0.65;;;0.52;;
17055;SDS011;8644;50.222;9.264;2022-08-19T13:52:38;0.32;;;0.32;;
17055;SDS011;8644;50.222;9.264;2022-08-19T13:55:05;0.63;;;0.63;;
17055;SDS011;8644;50.222;9.264;2022-08-19T13:57:34;0.40;;;0.40;;
17055;SDS011;8644;50.222;9.264;2022-08-19T14:00:01;0.47;;;0.47;;
17055;SDS011;8644;50.222;9.264;2022-08-19T14:02:30;0.65;;;0.65;;
17055;SDS011;8644;50.222;9.264;2022-08-19T14:04:56;0.63;;;0.63;;
17055;SDS011;8644;50.222;9.264;2022-08-19T14:07:24;0.63;;;0.63;;
17055;SDS011;8644;50.222;9.264;2022-08-19T14:09:50;0.25;;;0.25;;
17055;SDS011;8644;50.222;9.264;2022-08-19T14:12:18;1.20;;;0.82;;
17055;SDS011;8644;50.222;9.264;2022-08-19T14:14:46;0.60;;;0.40;;
17055;SDS011;8644;50.222;9.264;2022-08-19T14:17:13;1.00;;;0.65;;
17055;SDS011;8644;50.222;9.264;2022-08-19T14:19:40;0.28;;;0.28;;
17055;SDS011;8644;50.222;9.264;2022-08-19T14:22:06;0.32;;;0.30;;
17055;SDS011;8644;50.222;9.264;2022-08-19T14:24:33;0.40;;;0.40;;
17055;SDS011;8644;50.222;9.264;2022-08-19T14:26:59;0.40;;;0.40;;
17055;SDS011;8644;50.222;9.264;2022-08-19T14:29:26;0.40;;;0.40;;
17055;SDS011;8644;50.222;9.264;2022-08-19T14:31:55;0.35;;;0.30;;
17055;SDS011;8644;50.222;9.264;2022-08-19T14:34:24;0.60;;;0.60;;
17055;SDS011;8644;50.222;9.264;2022-08-19T14:36:51;0.68;;;0.52;;
17055;SDS011;8644;50.222;9.264;2022-08-19T14:39:17;1.13;;;0.40;;
17055;SDS011;8644;50.222;9.264;2022-08-19T14:41:44;0.68;;;0.57;;
17055;SDS011;8644;50.222;9.264;2022-08-19T14:44:11;2.28;;;0.60;;
17055;SDS011;8644;50.222;9.264;2022-08-19T14:46:38;3.58;;;1.17;;
17055;SDS011;8644;50.222;9.264;2022-08-19T14:49:06;3.22;;;0.63;;
17055;SDS011;8644;50.222;9.264;2022-08-19T14:51:33;1.60;;;0.63;;
17055;SDS011;8644;50.222;9.264;2022-08-19T14:54:00;2.17;;;1.02;;
17055;SDS011;8644;50.222;9.264;2022-08-19T14:56:27;0.63;;;0.55;;
17055;SDS011;8644;50.222;9.264;2022-08-19T14:58:55;0.65;;;0.60;;
17055;SDS011;8644;50.222;9.264;2022-08-19T15:01:24;0.30;;;0.30;;
17055;SDS011;8644;50.222;9.264;2022-08-19T15:03:51;0.45;;;0.30;;
17055;SDS011;8644;50.222;9.264;2022-08-19T15:06:21;1.75;;;1.10;;